createdAt,value
2023-09-29T00:02:56.274Z,10.45
2023-09-29T00:13:00.686Z,6.88
2023-09-29T00:23:04.042Z,5.47
2023-09-29T00:33:08.493Z,7.18
2023-09-29T00:43:12.552Z,8.02
2023-09-29T00:53:19.124Z,10.23
2023-09-29T01:03:22.260Z,6.97
2023-09-29T01:13:26.479Z,8.48
2023-09-29T01:23:32.785Z,8.10
2023-09-29T01:33:35.929Z,7.13
2023-09-29T01:43:40.731Z,6.65
2023-09-29T01:53:43.943Z,7.05
2023-09-29T02:03:49.488Z,6.93
2023-09-29T02:13:52.457Z,7.75
2023-09-29T02:23:56.626Z,9.98
2023-09-29T02:33:59.883Z,9.45
2023-09-29T02:44:04.116Z,6.65
2023-09-29T02:54:07.881Z,8.45
2023-09-29T03:04:12.872Z,6.00
2023-09-29T03:14:17.292Z,10.27
2023-09-29T03:24:21.460Z,7.82
2023-09-29T03:34:24.863Z,6.65
2023-09-29T03:44:29.074Z,6.45
2023-09-29T03:54:31.796Z,7.22
2023-09-29T04:04:36.071Z,6.60
2023-09-29T04:14:38.874Z,7.20
2023-09-29T04:24:43.595Z,9.30
2023-09-29T04:34:46.481Z,7.88
2023-09-29T04:44:50.648Z,7.28
2023-09-29T04:54:53.431Z,6.05
2023-09-29T05:04:57.522Z,8.85
2023-09-29T05:15:00.407Z,7.78
2023-09-29T05:25:05.456Z,8.85
2023-09-29T05:35:09.770Z,10.93
2023-09-29T05:45:14.224Z,10.23
2023-09-29T05:55:17.095Z,10.80
2023-09-29T06:05:21.969Z,10.02
2023-09-29T06:15:25.356Z,12.80
2023-09-29T06:25:29.498Z,11.15
2023-09-29T06:35:32.626Z,11.85
2023-09-29T06:45:57.098Z,11.18
2023-09-29T06:56:00.271Z,12.15
2023-09-29T07:06:04.585Z,9.18
2023-09-29T07:16:07.426Z,6.13
2023-09-29T07:26:11.565Z,9.63
2023-09-29T07:36:14.394Z,8.10
2023-09-29T07:46:18.593Z,7.95
2023-09-29T07:56:21.411Z,10.88
2023-09-29T08:06:26.669Z,6.32
2023-09-29T08:16:29.564Z,7.93
2023-09-29T08:26:33.852Z,8.20
2023-09-29T08:36:36.611Z,6.28
2023-09-29T08:46:42.117Z,6.38
2023-09-29T08:56:46.064Z,6.35
2023-09-29T09:06:50.472Z,6.25
2023-09-29T09:16:53.251Z,7.20
2023-09-29T09:27:03.683Z,8.07
2023-09-29T09:37:07.781Z,6.60
2023-09-29T09:47:15.490Z,5.32
2023-09-29T09:57:21.397Z,8.68
2023-09-29T10:07:26.692Z,6.93
2023-09-29T10:17:40.712Z,4.95
2023-09-29T10:27:50.559Z,7.15
2023-09-29T10:37:56.753Z,6.07
2023-09-29T10:58:07.879Z,5.35
2023-09-29T11:08:14.199Z,6.97
2023-09-29T11:18:30.574Z,4.63
2023-09-29T11:28:34.828Z,4.25
2023-09-29T11:38:37.839Z,4.38
2023-09-29T11:48:43.437Z,3.83
2023-09-29T11:58:46.341Z,5.00
2023-09-29T12:08:50.742Z,5.75
2023-09-29T12:18:53.687Z,7.95
2023-09-29T12:28:57.930Z,6.25
2023-09-29T12:39:02.510Z,8.45
2023-09-29T12:49:07.350Z,8.88
2023-09-29T12:59:12.211Z,11.20
2023-09-29T13:09:17.094Z,10.63
2023-09-29T13:19:22.936Z,11.57
2023-09-29T13:29:28.992Z,13.10
2023-09-29T13:39:31.746Z,17.30
2023-09-29T13:49:35.983Z,17.40
2023-09-29T13:59:38.863Z,20.20
2023-09-29T14:09:43.220Z,18.17
2023-09-29T14:19:46.539Z,17.10
2023-09-29T14:29:51.331Z,18.40
2023-09-29T14:39:55.523Z,16.75
2023-09-29T14:50:00.718Z,17.00
2023-09-29T15:00:06.001Z,17.25
2023-09-29T15:10:11.134Z,13.05
2023-09-29T15:20:16.214Z,13.85
2023-09-29T15:30:20.500Z,16.77
2023-09-29T15:40:23.334Z,19.20
2023-09-29T15:50:27.432Z,15.80
2023-09-29T16:00:30.724Z,17.08
2023-09-29T16:10:36.356Z,14.15
2023-09-29T16:20:39.213Z,17.00
2023-09-29T16:30:44.004Z,13.88
2023-09-29T16:40:51.726Z,12.05
2023-09-29T16:50:55.947Z,10.02
2023-09-29T17:00:59.465Z,8.93
2023-09-29T17:11:12.806Z,7.03
2023-09-29T17:21:17.030Z,9.52
2023-09-29T17:31:21.316Z,9.45
2023-09-29T17:41:24.517Z,9.93
2023-09-29T17:51:28.614Z,10.52
2023-09-29T18:01:31.943Z,12.98
2023-09-29T18:11:36.279Z,6.97
2023-09-29T18:21:39.082Z,6.25
2023-09-29T18:31:43.652Z,3.95
2023-09-29T18:41:46.416Z,3.90
2023-09-29T18:51:50.559Z,5.30
2023-09-29T19:01:53.369Z,6.85
2023-09-29T19:12:02.894Z,8.38
2023-09-29T19:22:05.732Z,8.38
2023-09-29T19:32:09.893Z,10.80
2023-09-29T19:42:12.667Z,6.13
2023-09-29T19:52:17.038Z,9.88
2023-09-29T20:02:19.864Z,7.78
2023-09-29T20:12:24.047Z,7.18
2023-09-29T20:22:26.867Z,12.27
2023-09-29T20:32:31.114Z,8.88
2023-09-29T20:42:33.927Z,6.53
2023-09-29T20:52:38.634Z,7.40
2023-09-29T21:02:42.562Z,10.20
2023-09-29T21:12:47.214Z,5.35
2023-09-29T21:22:53.969Z,7.45
2023-09-29T21:32:58.655Z,7.38
2023-09-29T21:43:01.596Z,11.07
2023-09-29T21:53:05.809Z,11.27
2023-09-29T22:03:09.547Z,9.25
2023-09-29T22:13:13.916Z,12.75
2023-09-29T22:23:18.189Z,9.48
2023-09-29T22:33:22.547Z,11.50
2023-09-29T22:43:25.324Z,13.20
2023-09-29T22:53:29.515Z,16.55
2023-09-29T23:03:32.412Z,13.23
2023-09-29T23:13:38.570Z,12.32
2023-09-29T23:23:42.050Z,14.82
2023-09-29T23:33:46.175Z,15.43
2023-09-29T23:43:49.310Z,17.02
2023-09-29T23:53:53.328Z,13.23
